createdAt,value
2023-02-14T00:01:44.026Z,9.57
2023-02-14T00:03:45.609Z,10.10
2023-02-14T00:05:47.396Z,11.65
2023-02-14T00:07:49.014Z,12.73
2023-02-14T00:09:50.609Z,13.80
2023-02-14T00:11:52.980Z,12.05
2023-02-14T00:14:13.393Z,21.90
2023-02-14T00:16:15.038Z,11.98
2023-02-14T00:18:18.425Z,12.20
2023-02-14T00:20:24.419Z,11.88
2023-02-14T00:22:26.150Z,11.30
2023-02-14T00:24:27.893Z,9.80
2023-02-14T00:26:29.535Z,10.40
2023-02-14T00:28:31.121Z,7.78
2023-02-14T00:30:32.969Z,9.88
2023-02-14T00:32:36.978Z,9.13
2023-02-14T00:34:40.598Z,8.38
2023-02-14T00:36:42.871Z,10.05
2023-02-14T00:38:44.462Z,9.82
2023-02-14T00:40:46.028Z,11.65
2023-02-14T00:42:47.610Z,10.32
2023-02-14T00:44:49.147Z,11.70
2023-02-14T00:46:50.882Z,11.02
2023-02-14T00:48:52.930Z,11.60
2023-02-14T00:50:54.516Z,9.95
2023-02-14T00:52:56.105Z,10.27
2023-02-14T00:54:57.725Z,9.85
2023-02-14T00:56:59.596Z,10.27
2023-02-14T00:59:01.188Z,9.18
2023-02-14T01:01:05.744Z,9.93
2023-02-14T01:03:07.573Z,8.50
2023-02-14T01:05:09.210Z,9.95
2023-02-14T01:07:10.951Z,8.90
2023-02-14T01:09:12.574Z,10.35
2023-02-14T01:11:17.590Z,9.77
2023-02-14T01:13:20.896Z,9.93
2023-02-14T01:15:25.329Z,11.32
2023-02-14T01:17:27.502Z,10.15
2023-02-14T01:19:29.181Z,9.93
2023-02-14T01:21:32.949Z,8.15
2023-02-14T01:23:34.536Z,8.73
2023-02-14T01:25:39.394Z,9.05
2023-02-14T01:27:41.236Z,8.93
2023-02-14T01:29:42.827Z,11.43
2023-02-14T01:31:45.235Z,10.13
2023-02-14T01:33:47.807Z,14.35
2023-02-14T01:35:49.495Z,14.65
2023-02-14T01:37:51.116Z,25.15
2023-02-14T01:39:52.767Z,31.10
2023-02-14T01:41:56.090Z,27.58
2023-02-14T01:44:22.531Z,21.13
2023-02-14T01:46:26.240Z,17.48
2023-02-14T01:48:27.870Z,17.05
2023-02-14T01:50:37.052Z,13.95
2023-02-14T01:52:44.340Z,12.85
2023-02-14T01:54:51.506Z,11.90
2023-02-14T01:56:57.036Z,14.00
2023-02-14T01:59:01.525Z,12.88
2023-02-14T02:01:04.261Z,12.75
2023-02-14T02:03:07.210Z,11.77
2023-02-14T02:05:08.877Z,9.70
2023-02-14T02:07:14.657Z,9.00
2023-02-14T02:09:25.724Z,10.20
2023-02-14T02:11:27.607Z,10.30
2023-02-14T02:13:30.124Z,8.85
2023-02-14T02:15:41.872Z,9.45
2023-02-14T02:18:00.330Z,8.75
2023-02-14T02:20:30.087Z,8.95
2023-02-14T02:22:34.589Z,9.95
2023-02-14T02:24:59.234Z,9.60
2023-02-14T02:27:00.818Z,18.48
2023-02-14T02:29:20.542Z,10.70
2023-02-14T02:31:28.138Z,10.00
2023-02-14T02:33:38.831Z,9.93
2023-02-14T02:35:43.336Z,10.75
2023-02-14T02:37:50.719Z,9.07
2023-02-14T02:40:07.526Z,9.75
2023-02-14T02:42:38.660Z,9.80
2023-02-14T02:45:14.718Z,10.85
2023-02-14T02:47:37.884Z,10.27
2023-02-14T02:50:12.812Z,9.15
2023-02-14T02:52:40.973Z,10.35
2023-02-14T02:54:46.865Z,10.75
2023-02-14T02:56:56.067Z,9.65
2023-02-14T02:59:00.006Z,11.07
2023-02-14T03:01:05.313Z,9.07
2023-02-14T03:03:25.996Z,8.68
2023-02-14T03:05:28.836Z,9.85
2023-02-14T03:07:41.372Z,9.63
2023-02-14T03:09:42.931Z,9.43
2023-02-14T03:11:51.895Z,10.55
2023-02-14T03:14:35.420Z,9.95
2023-02-14T03:17:06.194Z,9.68
2023-02-14T03:19:17.970Z,12.88
2023-02-14T03:21:43.152Z,8.90
2023-02-14T03:24:04.246Z,10.98
2023-02-14T03:26:15.463Z,10.05
2023-02-14T03:28:22.419Z,12.05
2023-02-14T03:30:41.972Z,10.02
2023-02-14T03:32:49.500Z,10.10
2023-02-14T03:34:55.346Z,9.10
2023-02-14T03:37:09.761Z,9.82
2023-02-14T03:39:25.875Z,10.57
2023-02-14T03:41:31.772Z,11.52
2023-02-14T03:43:36.998Z,11.05
2023-02-14T03:45:43.348Z,9.30
2023-02-14T03:47:45.920Z,9.75
2023-02-14T03:49:52.062Z,9.70
2023-02-14T03:51:56.105Z,9.27
2023-02-14T03:53:58.702Z,9.70
2023-02-14T03:56:10.738Z,9.30
2023-02-14T03:58:41.298Z,9.88
2023-02-14T04:00:44.340Z,11.37
2023-02-14T04:02:49.554Z,12.38
2023-02-14T04:04:52.824Z,10.57
2023-02-14T04:06:54.549Z,11.07
2023-02-14T04:08:56.117Z,10.88
2023-02-14T04:11:00.659Z,11.13
2023-02-14T04:13:02.537Z,9.87
2023-02-14T04:15:05.590Z,11.50
2023-02-14T04:17:26.260Z,12.03
2023-02-14T04:19:28.239Z,9.98
2023-02-14T04:21:29.952Z,11.00
2023-02-14T04:23:31.693Z,10.63
2023-02-14T04:25:33.262Z,11.50
2023-02-14T04:27:34.943Z,13.97
2023-02-14T04:29:48.426Z,11.57
2023-02-14T04:31:50.304Z,11.77
2023-02-14T04:33:51.979Z,10.63
2023-02-14T04:35:53.572Z,11.33
2023-02-14T04:37:55.253Z,10.47
2023-02-14T04:39:56.948Z,9.73
2023-02-14T04:41:58.630Z,11.10
2023-02-14T04:44:00.215Z,12.77
2023-02-14T04:46:01.958Z,9.23
2023-02-14T04:48:03.640Z,9.23
2023-02-14T04:50:05.894Z,10.83
2023-02-14T04:52:07.711Z,10.57
2023-02-14T04:54:09.506Z,11.50
2023-02-14T04:56:11.290Z,11.97
2023-02-14T04:58:12.927Z,10.37
2023-02-14T05:00:15.311Z,11.63
2023-02-14T05:02:17.031Z,11.73
2023-02-14T05:04:18.710Z,12.47
2023-02-14T05:06:20.418Z,10.50
2023-02-14T05:08:22.050Z,11.87
2023-02-14T05:10:23.739Z,9.83
2023-02-14T05:12:25.409Z,19.17
2023-02-14T05:14:27.061Z,10.60
2023-02-14T05:16:28.887Z,11.77
2023-02-14T05:18:30.503Z,10.13
2023-02-14T05:20:32.342Z,10.77
2023-02-14T05:22:34.099Z,10.80
2023-02-14T05:24:35.675Z,13.13
2023-02-14T05:26:37.421Z,10.87
2023-02-14T05:28:41.150Z,10.83
2023-02-14T05:30:43.028Z,10.83
2023-02-14T05:32:44.942Z,10.43
2023-02-14T05:34:46.624Z,11.33
2023-02-14T05:36:48.287Z,12.43
2023-02-14T05:38:50.820Z,13.17
2023-02-14T05:40:55.295Z,11.43
2023-02-14T05:42:56.953Z,12.20
2023-02-14T05:44:58.588Z,11.63
2023-02-14T05:47:00.340Z,11.87
2023-02-14T05:49:03.363Z,12.20
2023-02-14T05:51:09.476Z,13.40
2023-02-14T05:53:12.153Z,11.40
2023-02-14T05:55:13.916Z,13.07
2023-02-14T05:57:15.737Z,12.00
2023-02-14T05:59:17.427Z,13.63
2023-02-14T06:01:19.058Z,14.97
2023-02-14T06:03:20.657Z,12.27
2023-02-14T06:05:22.357Z,11.47
2023-02-14T06:07:24.113Z,10.93
2023-02-14T06:09:26.716Z,12.77
2023-02-14T06:11:28.334Z,10.13
2023-02-14T06:13:30.084Z,10.77
2023-02-14T06:15:31.768Z,10.33
2023-02-14T06:17:33.609Z,10.57
2023-02-14T06:19:35.653Z,11.77
2023-02-14T06:21:38.916Z,13.80
2023-02-14T06:23:40.511Z,11.50
2023-02-14T06:25:42.219Z,19.57
2023-02-14T06:27:44.255Z,12.23
2023-02-14T06:29:46.035Z,12.53
2023-02-14T06:31:47.990Z,19.33
2023-02-14T06:33:49.844Z,13.33
2023-02-14T06:35:56.762Z,14.10
2023-02-14T06:37:58.505Z,13.80
2023-02-14T06:40:00.225Z,13.70
2023-02-14T06:42:02.007Z,14.07
2023-02-14T06:44:04.899Z,13.43
2023-02-14T06:46:07.083Z,13.53
2023-02-14T06:48:09.192Z,13.17
2023-02-14T06:50:11.895Z,12.77
2023-02-14T06:52:13.700Z,13.40
2023-02-14T06:54:24.002Z,12.80
2023-02-14T06:56:26.830Z,12.13
2023-02-14T06:58:28.575Z,10.47
2023-02-14T07:00:33.702Z,12.20
2023-02-14T07:02:35.486Z,13.70
2023-02-14T07:04:37.434Z,13.80
2023-02-14T07:06:41.612Z,12.47
2023-02-14T07:08:44.828Z,10.63
2023-02-14T07:10:49.070Z,11.93
2023-02-14T07:12:51.137Z,13.13
2023-02-14T07:14:53.073Z,12.07
2023-02-14T07:16:54.861Z,11.40
2023-02-14T07:18:57.992Z,11.20
2023-02-14T07:20:59.873Z,10.43
2023-02-14T07:23:02.100Z,11.17
2023-02-14T07:25:04.706Z,12.00
2023-02-14T07:27:06.706Z,12.23
2023-02-14T07:29:09.183Z,10.47
2023-02-14T07:31:12.208Z,10.87
2023-02-14T07:33:14.071Z,10.70
2023-02-14T07:35:17.167Z,10.73
2023-02-14T07:37:20.541Z,13.23
2023-02-14T07:39:22.321Z,10.97
2023-02-14T07:41:24.822Z,13.03
2023-02-14T07:43:26.941Z,11.00
2023-02-14T07:45:31.789Z,10.50
2023-02-14T07:47:33.614Z,12.53
2023-02-14T07:49:36.487Z,12.73
2023-02-14T07:51:39.013Z,14.07
2023-02-14T07:53:41.617Z,12.90
2023-02-14T07:55:43.803Z,12.73
2023-02-14T07:57:48.030Z,11.70
2023-02-14T07:59:49.686Z,13.13
2023-02-14T08:01:51.412Z,12.80
2023-02-14T08:03:53.178Z,13.40
2023-02-14T08:05:57.616Z,13.47
2023-02-14T08:07:59.229Z,12.80
2023-02-14T08:10:00.791Z,15.97
2023-02-14T08:12:21.385Z,13.30
2023-02-14T08:14:23.382Z,14.55
2023-02-14T08:16:25.093Z,12.60
2023-02-14T08:18:27.737Z,16.15
2023-02-14T08:20:29.677Z,14.32
2023-02-14T08:22:32.106Z,14.05
2023-02-14T08:24:33.845Z,16.23
2023-02-14T08:26:35.689Z,12.40
2023-02-14T08:28:38.784Z,13.25
2023-02-14T08:30:41.671Z,13.85
2023-02-14T08:32:43.375Z,13.02
2023-02-14T08:34:45.218Z,12.43
2023-02-14T08:36:47.630Z,14.18
2023-02-14T08:38:49.527Z,12.85
2023-02-14T08:40:51.444Z,12.82
2023-02-14T08:42:56.287Z,15.43
2023-02-14T08:44:58.169Z,13.05
2023-02-14T08:47:02.133Z,12.90
2023-02-14T08:49:04.123Z,14.73
2023-02-14T08:51:10.436Z,12.20
2023-02-14T08:53:13.648Z,13.40
2023-02-14T08:55:15.490Z,12.02
2023-02-14T08:57:17.965Z,12.68
2023-02-14T08:59:19.717Z,15.00
2023-02-14T09:01:24.445Z,14.10
2023-02-14T09:03:49.142Z,13.35
2023-02-14T09:05:54.609Z,14.27
2023-02-14T09:07:57.565Z,12.38
2023-02-14T09:09:59.780Z,14.63
2023-02-14T09:12:08.470Z,13.38
2023-02-14T09:14:10.382Z,14.68
2023-02-14T09:16:19.599Z,14.20
2023-02-14T09:18:22.509Z,13.05
2023-02-14T09:20:27.221Z,14.82
2023-02-14T09:22:28.968Z,14.43
2023-02-14T09:24:35.009Z,14.65
2023-02-14T09:26:40.678Z,14.98
2023-02-14T09:28:46.279Z,15.23
2023-02-14T09:30:48.067Z,14.43
2023-02-14T09:32:52.596Z,13.45
2023-02-14T09:34:54.536Z,15.38
2023-02-14T09:36:59.487Z,15.85
2023-02-14T09:39:01.392Z,15.88
2023-02-14T09:41:08.676Z,15.48
2023-02-14T09:43:26.253Z,14.45
2023-02-14T09:45:30.082Z,17.42
2023-02-14T09:47:50.286Z,17.67
2023-02-14T09:49:53.196Z,14.80
2023-02-14T09:51:55.408Z,15.77
2023-02-14T09:54:15.069Z,13.80
2023-02-14T09:56:50.317Z,16.20
2023-02-14T09:59:01.369Z,16.00
2023-02-14T10:01:13.392Z,14.00
2023-02-14T10:03:33.278Z,15.05
2023-02-14T10:05:44.544Z,13.93
2023-02-14T10:08:09.706Z,14.60
2023-02-14T10:10:19.593Z,13.85
2023-02-14T10:12:24.984Z,13.68
2023-02-14T10:14:30.292Z,15.30
2023-02-14T10:16:35.671Z,14.40
2023-02-14T10:18:43.237Z,14.32
2023-02-14T10:20:46.628Z,18.20
2023-02-14T10:23:11.901Z,15.82
2023-02-14T10:25:20.678Z,13.93
2023-02-14T10:27:40.256Z,15.10
2023-02-14T10:29:42.091Z,14.70
2023-02-14T10:31:59.030Z,15.80
2023-02-14T10:34:17.924Z,14.43
2023-02-14T10:36:46.738Z,14.48
2023-02-14T10:39:03.445Z,13.50
2023-02-14T10:41:25.349Z,15.38
2023-02-14T10:43:48.628Z,13.88
2023-02-14T10:46:18.109Z,16.55
2023-02-14T10:48:45.244Z,14.38
2023-02-14T10:51:14.929Z,13.38
2023-02-14T10:53:49.166Z,14.07
2023-02-14T10:55:55.360Z,13.52
2023-02-14T10:58:05.168Z,13.70
2023-02-14T11:00:35.582Z,13.27
2023-02-14T11:02:42.800Z,14.05
2023-02-14T11:07:03.145Z,14.02
2023-02-14T11:09:05.290Z,14.07
2023-02-14T11:11:34.254Z,14.90
2023-02-14T11:13:38.634Z,12.93
2023-02-14T11:15:51.335Z,13.82
2023-02-14T11:18:17.830Z,12.93
2023-02-14T11:20:20.329Z,14.10
2023-02-14T11:22:33.926Z,15.25
2023-02-14T11:24:38.527Z,14.30
2023-02-14T11:26:46.334Z,13.70
2023-02-14T11:28:56.014Z,14.25
2023-02-14T11:30:58.001Z,14.27
2023-02-14T11:33:00.432Z,14.98
2023-02-14T11:35:07.246Z,14.13
2023-02-14T11:37:23.789Z,14.90
2023-02-14T11:39:34.931Z,13.55
2023-02-14T11:41:59.101Z,14.98
2023-02-14T11:44:18.990Z,14.80
2023-02-14T11:46:20.669Z,14.45
2023-02-14T11:48:37.310Z,14.52
2023-02-14T11:50:42.127Z,15.65
2023-02-14T11:52:51.476Z,14.30
2023-02-14T11:54:53.965Z,14.52
2023-02-14T11:57:01.202Z,15.85
2023-02-14T11:59:04.699Z,15.52
2023-02-14T12:01:06.902Z,15.05
2023-02-14T12:03:18.454Z,15.55
2023-02-14T12:05:25.686Z,16.15
2023-02-14T12:07:37.386Z,15.80
2023-02-14T12:09:41.448Z,15.68
2023-02-14T12:12:04.729Z,16.80
2023-02-14T12:14:21.704Z,16.45
2023-02-14T12:16:52.991Z,16.30
2023-02-14T12:19:15.571Z,16.33
2023-02-14T12:21:41.385Z,17.27
2023-02-14T12:24:04.816Z,18.25
2023-02-14T12:26:26.199Z,17.02
2023-02-14T12:28:53.405Z,17.55
2023-02-14T12:30:55.243Z,17.48
2023-02-14T12:32:57.733Z,17.13
2023-02-14T12:35:19.753Z,16.20
2023-02-14T12:37:48.739Z,17.90
2023-02-14T12:40:11.133Z,17.55
2023-02-14T12:42:12.852Z,16.17
2023-02-14T12:44:33.289Z,17.02
2023-02-14T12:46:50.001Z,16.73
2023-02-14T12:49:04.879Z,16.23
2023-02-14T12:51:27.174Z,17.02
2023-02-14T12:53:34.922Z,16.77
2023-02-14T12:55:40.722Z,16.48
2023-02-14T12:58:00.044Z,16.08
2023-02-14T13:00:15.093Z,16.30
2023-02-14T13:02:22.984Z,17.23
2023-02-14T13:04:53.361Z,16.58
2023-02-14T13:07:01.628Z,18.33
2023-02-14T13:09:23.566Z,18.73
2023-02-14T13:11:58.872Z,18.38
2023-02-14T13:14:25.400Z,16.20
2023-02-14T13:16:33.726Z,15.60
2023-02-14T13:18:53.583Z,17.05
2023-02-14T13:21:04.931Z,16.77
2023-02-14T13:23:14.181Z,16.65
2023-02-14T13:25:34.005Z,17.67
2023-02-14T13:27:38.038Z,16.08
2023-02-14T13:29:47.306Z,15.50
2023-02-14T13:31:49.220Z,16.38
2023-02-14T13:33:54.937Z,16.50
2023-02-14T13:36:06.637Z,17.05
2023-02-14T13:38:13.235Z,17.17
2023-02-14T13:40:21.148Z,17.83
2023-02-14T13:42:50.254Z,16.80
2023-02-14T13:44:52.823Z,15.82
2023-02-14T13:46:54.631Z,16.80
2023-02-14T13:49:01.133Z,17.65
2023-02-14T13:51:05.248Z,17.30
2023-02-14T13:53:12.817Z,16.02
2023-02-14T13:55:20.820Z,16.48
2023-02-14T13:57:34.384Z,16.05
2023-02-14T13:59:36.290Z,13.93
2023-02-14T14:01:50.186Z,15.65
2023-02-14T14:03:57.827Z,16.63
2023-02-14T14:06:02.674Z,15.77
2023-02-14T14:08:30.661Z,15.77
2023-02-14T14:10:49.120Z,14.90
2023-02-14T14:12:52.188Z,16.63
2023-02-14T14:15:06.231Z,15.95
2023-02-14T14:17:20.414Z,15.30
2023-02-14T14:19:22.024Z,16.77
2023-02-14T14:21:26.559Z,16.05
2023-02-14T14:23:31.295Z,15.20
2023-02-14T14:25:41.265Z,16.67
2023-02-14T14:27:45.305Z,16.27
2023-02-14T14:29:50.221Z,15.73
2023-02-14T14:31:55.884Z,17.25
2023-02-14T14:33:59.934Z,18.42
2023-02-14T14:36:08.954Z,17.02
2023-02-14T14:38:13.769Z,17.48
2023-02-14T14:40:20.290Z,17.20
2023-02-14T14:42:23.654Z,16.55
2023-02-14T14:44:25.810Z,17.27
2023-02-14T14:46:27.970Z,17.70
2023-02-14T14:48:35.470Z,18.45
2023-02-14T14:50:37.180Z,18.30
2023-02-14T14:52:43.882Z,18.33
2023-02-14T14:54:45.602Z,19.50
2023-02-14T14:56:52.491Z,19.83
2023-02-14T14:58:54.540Z,19.08
2023-02-14T15:00:56.255Z,20.17
2023-02-14T15:03:06.809Z,19.13
2023-02-14T15:05:32.692Z,21.10
2023-02-14T15:07:35.334Z,23.42
2023-02-14T15:09:37.076Z,20.50
2023-02-14T15:11:57.967Z,21.48
2023-02-14T15:13:59.839Z,20.73
2023-02-14T15:16:03.804Z,20.23
2023-02-14T15:18:07.953Z,21.65
2023-02-14T15:20:15.314Z,19.15
2023-02-14T15:22:29.873Z,21.63
2023-02-14T15:24:35.114Z,20.42
2023-02-14T15:26:36.825Z,20.38
2023-02-14T15:28:38.625Z,22.55
2023-02-14T15:30:44.147Z,23.63
2023-02-14T15:32:47.407Z,23.40
2023-02-14T15:34:49.182Z,22.95
2023-02-14T15:36:56.663Z,24.73
2023-02-14T15:38:58.841Z,23.58
2023-02-14T15:41:01.099Z,29.85
2023-02-14T15:43:18.382Z,24.00
2023-02-14T15:45:30.889Z,25.77
2023-02-14T15:47:32.587Z,23.70
2023-02-14T15:49:36.976Z,25.95
2023-02-14T15:51:39.241Z,21.80
2023-02-14T15:53:42.925Z,21.10
2023-02-14T15:55:44.875Z,24.50
2023-02-14T15:57:54.699Z,23.45
2023-02-14T15:59:56.323Z,30.42
2023-02-14T16:02:04.471Z,24.92
2023-02-14T16:04:07.056Z,29.95
2023-02-14T16:06:16.972Z,28.77
2023-02-14T16:08:30.704Z,27.17
2023-02-14T16:10:38.644Z,32.13
2023-02-14T16:12:42.039Z,29.25
2023-02-14T16:14:45.804Z,27.20
2023-02-14T16:17:13.080Z,37.60
2023-02-14T16:19:35.390Z,29.52
2023-02-14T16:21:37.064Z,33.40
2023-02-14T16:23:39.089Z,32.20
2023-02-14T16:25:41.443Z,29.70
2023-02-14T16:27:43.176Z,28.05
2023-02-14T16:29:44.866Z,30.70
2023-02-14T16:34:16.224Z,25.83
2023-02-14T16:36:23.282Z,32.10
2023-02-14T16:38:24.986Z,29.08
2023-02-14T16:40:27.967Z,29.45
2023-02-14T16:42:29.721Z,27.58
2023-02-14T16:44:31.941Z,31.48
2023-02-14T16:46:35.902Z,28.98
2023-02-14T16:48:37.610Z,28.50
2023-02-14T16:50:40.257Z,33.35
2023-02-14T16:52:42.512Z,25.05
2023-02-14T16:54:44.191Z,27.90
2023-02-14T16:56:50.363Z,27.27
2023-02-14T16:58:52.045Z,28.27
2023-02-14T17:00:53.966Z,27.85
2023-02-14T17:03:04.606Z,27.83
2023-02-14T17:05:06.802Z,33.72
2023-02-14T17:07:08.530Z,29.90
2023-02-14T17:09:11.667Z,28.40
2023-02-14T17:11:13.595Z,36.33
2023-02-14T17:13:18.881Z,27.90
2023-02-14T17:15:21.576Z,28.00
2023-02-14T17:17:23.319Z,28.50
2023-02-14T17:19:25.415Z,31.33
2023-02-14T17:21:27.126Z,32.60
2023-02-14T17:23:28.828Z,30.85
2023-02-14T17:25:30.802Z,35.38
2023-02-14T17:27:32.557Z,32.85
2023-02-14T17:29:34.301Z,30.23
2023-02-14T17:31:36.196Z,41.25
2023-02-14T17:33:39.002Z,31.15
2023-02-14T17:35:40.640Z,33.58
2023-02-14T17:37:42.737Z,32.72
2023-02-14T17:39:45.206Z,35.08
2023-02-14T17:41:46.987Z,32.83
2023-02-14T17:43:49.933Z,33.00
2023-02-14T17:45:51.557Z,34.95
2023-02-14T17:47:53.790Z,30.85
2023-02-14T17:49:55.523Z,30.10
2023-02-14T17:51:57.307Z,32.83
2023-02-14T17:53:59.141Z,33.38
2023-02-14T17:56:05.984Z,44.63
2023-02-14T17:58:07.609Z,37.25
2023-02-14T18:00:11.735Z,28.65
2023-02-14T18:02:14.015Z,37.00
2023-02-14T18:04:15.655Z,38.85
2023-02-14T18:06:19.380Z,35.40
2023-02-14T18:08:22.169Z,36.05
2023-02-14T18:10:23.846Z,37.20
2023-02-14T18:12:25.532Z,50.53
2023-02-14T18:14:27.185Z,73.05
2023-02-14T18:16:29.032Z,37.47
2023-02-14T18:18:31.379Z,38.88
2023-02-14T18:20:33.016Z,34.33
2023-02-14T18:22:34.724Z,31.45
2023-02-14T18:24:36.667Z,30.60
2023-02-14T18:26:40.410Z,33.65
2023-02-14T18:28:42.392Z,30.63
2023-02-14T18:30:44.133Z,34.03
2023-02-14T18:32:45.816Z,48.80
2023-02-14T18:34:47.396Z,43.92
2023-02-14T18:36:49.112Z,45.72
2023-02-14T18:38:50.848Z,35.03
2023-02-14T18:40:52.859Z,31.50
2023-02-14T18:42:55.105Z,30.13
2023-02-14T18:44:56.719Z,28.15
2023-02-14T18:47:00.659Z,37.58
2023-02-14T18:49:05.999Z,31.65
2023-02-14T18:51:13.226Z,37.38
2023-02-14T18:53:16.831Z,28.45
2023-02-14T18:55:18.556Z,37.03
2023-02-14T18:57:20.217Z,38.30
2023-02-14T18:59:21.951Z,38.33
2023-02-14T19:01:28.743Z,40.85
2023-02-14T19:03:30.407Z,37.10
2023-02-14T19:05:32.153Z,30.75
2023-02-14T19:07:35.727Z,32.38
2023-02-14T19:09:39.874Z,32.92
2023-02-14T19:11:42.232Z,41.40
2023-02-14T19:13:49.792Z,33.22
2023-02-14T19:15:52.179Z,25.92
2023-02-14T19:17:54.277Z,39.40
2023-02-14T19:19:56.078Z,29.27
2023-02-14T19:22:01.537Z,26.67
2023-02-14T19:24:07.482Z,29.05
2023-02-14T19:26:20.740Z,25.88
2023-02-14T19:28:22.358Z,29.83
2023-02-14T19:30:24.036Z,27.08
2023-02-14T19:32:26.210Z,30.13
2023-02-14T19:34:30.150Z,88.28
2023-02-14T19:36:32.153Z,30.70
2023-02-14T19:38:34.588Z,28.85
2023-02-14T19:40:36.217Z,32.15
2023-02-14T19:42:38.066Z,64.80
2023-02-14T19:44:40.383Z,105.18
2023-02-14T19:46:43.109Z,24.65
2023-02-14T19:48:45.049Z,36.88
2023-02-14T19:50:46.734Z,29.48
2023-02-14T19:52:48.404Z,42.45
2023-02-14T19:54:50.142Z,33.33
2023-02-14T19:56:52.744Z,27.67
2023-02-14T19:58:56.126Z,32.45
2023-02-14T20:00:59.757Z,28.50
2023-02-14T20:03:01.848Z,33.05
2023-02-14T20:05:04.388Z,36.00
2023-02-14T20:07:06.082Z,31.83
2023-02-14T20:09:07.911Z,34.30
2023-02-14T20:11:51.890Z,45.53
2023-02-14T20:13:55.264Z,26.50
2023-02-14T20:15:56.870Z,36.83
2023-02-14T20:17:58.505Z,30.45
2023-02-14T20:20:00.425Z,37.85
2023-02-14T20:22:02.763Z,34.40
2023-02-14T20:24:05.449Z,37.13
2023-02-14T20:26:12.391Z,33.55
2023-02-14T20:28:14.022Z,76.22
2023-02-14T20:30:20.680Z,64.72
2023-02-14T20:32:22.416Z,39.10
2023-02-14T20:34:24.305Z,34.97
2023-02-14T20:36:26.477Z,36.63
2023-02-14T20:38:28.086Z,36.70
2023-02-14T20:40:29.666Z,40.15
2023-02-14T20:42:31.324Z,83.22
2023-02-14T20:44:33.835Z,30.27
2023-02-14T20:46:36.187Z,38.33
2023-02-14T20:48:38.463Z,31.20
2023-02-14T20:50:40.294Z,36.83
2023-02-14T20:52:41.937Z,35.63
2023-02-14T20:54:43.618Z,37.40
2023-02-14T20:56:45.864Z,39.50
2023-02-14T20:58:47.512Z,40.28
2023-02-14T21:00:49.157Z,35.10
2023-02-14T21:02:50.810Z,38.20
2023-02-14T21:04:52.401Z,32.15
2023-02-14T21:06:54.669Z,26.60
2023-02-14T21:08:57.185Z,29.80
2023-02-14T21:10:59.040Z,30.00
2023-02-14T21:13:00.887Z,38.55
2023-02-14T21:15:02.543Z,29.98
2023-02-14T21:17:04.940Z,28.10
2023-02-14T21:19:06.629Z,30.63
2023-02-14T21:21:12.938Z,43.58
2023-02-14T21:23:14.593Z,36.67
2023-02-14T21:25:16.333Z,46.80
2023-02-14T21:27:18.037Z,27.63
2023-02-14T21:29:19.697Z,32.22
2023-02-14T21:31:21.974Z,35.88
2023-02-14T21:33:25.375Z,49.75
2023-02-14T21:35:27.036Z,64.80
2023-02-14T21:37:28.702Z,49.60
2023-02-14T21:39:31.103Z,59.17
2023-02-14T21:41:33.137Z,35.38
2023-02-14T21:43:36.836Z,71.18
2023-02-14T21:45:53.453Z,31.20
2023-02-14T21:48:13.798Z,42.95
2023-02-14T21:50:31.031Z,31.48
2023-02-14T21:52:32.685Z,34.22
2023-02-14T21:54:34.284Z,32.50
2023-02-14T21:56:37.117Z,42.35
2023-02-14T21:58:38.986Z,28.10
2023-02-14T22:00:40.756Z,36.50
2023-02-14T22:02:42.594Z,36.72
2023-02-14T22:04:45.629Z,27.30
2023-02-14T22:06:47.306Z,35.28
2023-02-14T22:08:57.233Z,28.55
2023-02-14T22:11:00.000Z,43.22
2023-02-14T22:13:01.996Z,65.13
2023-02-14T22:15:03.777Z,70.35
2023-02-14T22:17:05.528Z,29.85
2023-02-14T22:19:08.347Z,66.35
2023-02-14T22:21:13.991Z,33.75
2023-02-14T22:23:15.593Z,29.92
2023-02-14T22:25:17.318Z,30.75
2023-02-14T22:27:19.112Z,35.78
2023-02-14T22:29:20.814Z,141.27
2023-02-14T22:31:23.918Z,43.83
2023-02-14T22:33:25.600Z,30.63
2023-02-14T22:35:27.260Z,31.95
2023-02-14T22:37:29.034Z,39.33
2023-02-14T22:39:30.693Z,68.10
2023-02-14T22:41:37.678Z,33.60
2023-02-14T22:43:39.774Z,26.10
2023-02-14T22:45:41.389Z,31.98
2023-02-14T22:47:43.181Z,33.88
2023-02-14T22:49:45.006Z,34.25
2023-02-14T22:51:46.775Z,30.98
2023-02-14T22:53:49.874Z,32.80
2023-02-14T22:55:51.522Z,31.30
2023-02-14T22:57:53.206Z,32.03
2023-02-14T22:59:54.794Z,29.80
2023-02-14T23:01:56.504Z,28.63
2023-02-14T23:03:59.408Z,23.70
2023-02-14T23:06:01.296Z,32.50
2023-02-14T23:08:03.110Z,26.80
2023-02-14T23:10:06.047Z,27.90
2023-02-14T23:12:27.682Z,31.05
2023-02-14T23:14:47.810Z,29.30
2023-02-14T23:17:08.138Z,27.92
2023-02-14T23:19:33.449Z,28.33
2023-02-14T23:21:53.823Z,37.17
2023-02-14T23:23:55.456Z,31.80
2023-02-14T23:25:57.098Z,37.78
2023-02-14T23:27:58.904Z,41.83
2023-02-14T23:30:01.327Z,73.57
2023-02-14T23:32:03.953Z,31.73
2023-02-14T23:34:05.647Z,27.02
2023-02-14T23:36:07.450Z,28.52
2023-02-14T23:38:09.054Z,31.25
2023-02-14T23:40:11.239Z,28.60
2023-02-14T23:42:14.659Z,27.58
2023-02-14T23:44:24.184Z,24.33
2023-02-14T23:46:25.995Z,29.65
2023-02-14T23:48:28.282Z,39.13
2023-02-14T23:50:29.954Z,31.70
2023-02-14T23:52:31.611Z,26.92
2023-02-14T23:54:33.757Z,53.55
2023-02-14T23:56:35.915Z,31.45
2023-02-14T23:58:37.639Z,44.78
